| time (UTC) | temp C | wind direction | speed KPH | gust KPH | rain 1hr cm | rain 24hr cm | rain mn cm | humidity % | barometer mb |
| 20260507202024 | 17 | 334 | 8.0 | 20.9 | 0.00 | 0.18 | 0.10 | 29 | 1005.5 |
| 20260507201044 | 16 | 320 | 4.8 | 14.5 | 0.00 | 0.20 | 0.10 | 30 | 1005.5 |
| 20260507200024 | 17 | 315 | 6.4 | 14.5 | 0.00 | 0.20 | 0.10 | 31 | 1005.6 |
| 20260507195023 | 17 | 293 | 6.4 | 12.9 | 0.00 | 0.20 | 0.10 | 30 | 1005.7 |
| 20260507194023 | 17 | 338 | 9.7 | 16.1 | 0.00 | 0.20 | 0.10 | 30 | 1005.6 |
| 20260507193024 | 16 | 349 | 4.8 | 12.9 | 0.00 | 0.23 | 0.10 | 32 | 1005.8 |
| 20260507192025 | 16 | 327 | 6.4 | 11.3 | 0.00 | 0.25 | 0.10 | 30 | 1006.0 |
| 20260507191026 | 17 | 344 | 8.0 | 14.5 | 0.00 | 0.25 | 0.10 | 29 | 1006.1 |
| 20260507190040 | 17 | 275 | 4.8 | 9.7 | 0.00 | 0.28 | 0.10 | 29 | 1006.2 |
| 20260507185043 | 16 | 336 | 9.7 | 17.7 | 0.00 | 0.30 | 0.10 | 31 | 1006.4 |
| 20260507184045 | 17 | 319 | 8.0 | 12.9 | 0.00 | 0.30 | 0.10 | 29 | 1006.4 |
| 20260507183023 | 17 | 340 | 6.4 | 12.9 | 0.00 | 0.30 | 0.10 | 30 | 1006.5 |
| 20260507182020 | 17 | 319 | 9.7 | 16.1 | 0.00 | 0.30 | 0.10 | 27 | 1006.6 |
| 20260507181025 | 17 | 328 | 4.8 | 12.9 | 0.00 | 0.30 | 0.10 | 30 | 1006.6 |
| 20260507180026 | 17 | 323 | 9.7 | 16.1 | 0.00 | 0.30 | 0.10 | 29 | 1006.7 |
| 20260507175019 | 16 | 312 | 8.0 | 12.9 | 0.00 | 0.30 | 0.10 | 30 | 1006.7 |
| 20260507174024 | 17 | 328 | 4.8 | 9.7 | 0.00 | 0.30 | 0.10 | 32 | 1006.7 |
| 20260507173023 | 17 | 342 | 8.0 | 17.7 | 0.00 | 0.30 | 0.10 | 30 | 1006.7 |
| 20260507172023 | 17 | 324 | 9.7 | 16.1 | 0.00 | 0.30 | 0.10 | 32 | 1006.6 |
| 20260507171024 | 17 | 340 | 6.4 | 9.7 | 0.00 | 0.30 | 0.10 | 34 | 1006.9 |
| 20260507170023 | 16 | 320 | 8.0 | 16.1 | 0.00 | 0.30 | 0.10 | 32 | 1007.1 |
| 20260507165026 | 17 | 313 | 6.4 | 14.5 | 0.00 | 0.30 | 0.10 | 33 | 1007.1 |
| 20260507164028 | 16 | 338 | 8.0 | 14.5 | 0.00 | 0.30 | 0.10 | 37 | 1007.3 |
| 20260507163020 | 16 | 309 | 6.4 | 14.5 | 0.00 | 0.30 | 0.10 | 36 | 1007.3 |
| 20260507162045 | 16 | 333 | 6.4 | 16.1 | 0.00 | 0.30 | 0.10 | 37 | 1007.4 |
| 20260507161023 | 16 | 339 | 8.0 | 12.9 | 0.00 | 0.30 | 0.10 | 40 | 1007.5 |
| 20260507160020 | 16 | 328 | 9.7 | 12.9 | 0.00 | 0.30 | 0.10 | 43 | 1007.5 |
| 20260507155033 | 16 | 359 | 6.4 | 11.3 | 0.00 | 0.30 | 0.10 | 41 | 1007.6 |
| 20260507154023 | 15 | 349 | 6.4 | 11.3 | 0.00 | 0.30 | 0.10 | 47 | 1007.6 |
| 20260507153044 | 15 | 336 | 4.8 | 8.0 | 0.00 | 0.30 | 0.10 | 48 | 1007.5 |
| 20260507152024 | 15 | 323 | 6.4 | 14.5 | 0.00 | 0.30 | 0.10 | 49 | 1007.7 |
| 20260507151025 | 15 | 329 | 6.4 | 11.3 | 0.00 | 0.30 | 0.10 | 51 | 1007.8 |
| 20260507150029 | 15 | 341 | 6.4 | 12.9 | 0.00 | 0.30 | 0.10 | 54 | 1007.9 |
| 20260507145023 | 14 | 302 | 3.2 | 9.7 | 0.00 | 0.30 | 0.10 | 59 | 1008.0 |
| 20260507144020 | 13 | 318 | 4.8 | 9.7 | 0.00 | 0.30 | 0.10 | 57 | 1008.2 |
| 20260507143023 | 13 | 314 | 6.4 | 16.1 | 0.00 | 0.30 | 0.10 | 59 | 1008.2 |
| 20260507142019 | 14 | 330 | 4.8 | 12.9 | 0.00 | 0.30 | 0.10 | 58 | 1008.2 |
| 20260507141020 | 13 | 330 | 4.8 | 9.7 | 0.00 | 0.30 | 0.10 | 60 | 1008.2 |
| 20260507140026 | 13 | 325 | 4.8 | 8.0 | 0.00 | 0.30 | 0.10 | 61 | 1008.1 |
| 20260507135019 | 13 | 195 | 6.4 | 11.3 | 0.00 | 0.30 | 0.10 | 62 | 1008.0 |
| 20260507134018 | 12 | 323 | 4.8 | 8.0 | 0.00 | 0.30 | 0.10 | 64 | 1008.0 |
| 20260507133026 | 12 | 328 | 6.4 | 11.3 | 0.00 | 0.30 | 0.10 | 65 | 1008.1 |
| 20260507132023 | 12 | 312 | 4.8 | 9.7 | 0.00 | 0.30 | 0.10 | 64 | 1008.2 |
| 20260507131019 | 12 | 335 | 4.8 | 9.7 | 0.00 | 0.30 | 0.10 | 66 | 1008.4 |
| 20260507130040 | 12 | 327 | 6.4 | 11.3 | 0.00 | 0.30 | 0.10 | 67 | 1008.3 |
| 20260507125026 | 11 | 351 | 4.8 | 6.4 | 0.00 | 0.30 | 0.10 | 70 | 1008.4 |
| 20260507124048 | 11 | 326 | 3.2 | 6.4 | 0.00 | 0.30 | 0.10 | 72 | 1008.5 |
| 20260507123020 | 11 | 347 | 4.8 | 6.4 | 0.00 | 0.30 | 0.10 | 77 | 1008.5 |
| 20260507122024 | 10 | 350 | 4.8 | 6.4 | 0.00 | 0.30 | 0.10 | 78 | 1008.5 |
| 20260507121025 | 10 | 341 | 4.8 | 9.7 | 0.00 | 0.30 | 0.10 | 80 | 1008.6 |
| 20260507120024 | 10 | 325 | 3.2 | 6.4 | 0.00 | 0.30 | 0.10 | 83 | 1008.4 |
| 20260507114025 | 10 | 0.0 | 0.0 | 0.00 | 0.30 | 0.10 | 89 | 1008.5 | |
| 20260507113019 | 9 | 0.0 | 0.0 | 0.00 | 0.30 | 0.10 | 90 | 1008.4 | |
| 20260507112024 | 9 | 0.0 | 0.0 | 0.00 | 0.30 | 0.10 | 91 | 1008.5 | |
| 20260507111024 | 9 | 0.0 | 0.0 | 0.00 | 0.30 | 0.10 | 91 | 1008.3 | |
| 20260507110024 | 8 | 0.0 | 0.0 | 0.00 | 0.30 | 0.10 | 91 | 1008.0 | |
| 20260507105024 | 8 | 0.0 | 0.0 | 0.00 | 0.30 | 0.10 | 91 | 1008.3 | |
| 20260507104024 | 8 | 0.0 | 0.0 | 0.00 | 0.30 | 0.10 | 90 | 1008.3 | |
| 20260507103023 | 8 | 0.0 | 0.0 | 0.03 | 0.30 | 0.10 | 90 | 1007.9 | |
| 20260507102026 | 8 | 0.0 | 0.0 | 0.03 | 0.30 | 0.10 | 90 | 1007.7 | |
| 20260507101023 | 8 | 0.0 | 0.0 | 0.03 | 0.30 | 0.10 | 90 | 1007.6 | |
| 20260507100019 | 8 | 328 | 1.6 | 4.8 | 0.05 | 0.30 | 0.10 | 89 | 1007.6 |
| 20260507095019 | 8 | 2 | 0.0 | 1.6 | 0.05 | 0.30 | 0.10 | 89 | 1007.5 |
| 20260507094040 | 8 | 304 | 1.6 | 4.8 | 0.05 | 0.30 | 0.10 | 89 | 1007.5 |
| 20260507093020 | 8 | 345 | 0.0 | 1.6 | 0.03 | 0.28 | 0.08 | 88 | 1007.7 |
| 20260507092025 | 8 | 320 | 4.8 | 6.4 | 0.03 | 0.28 | 0.08 | 87 | 1007.9 |
| 20260507091023 | 9 | 320 | 1.6 | 4.8 | 0.03 | 0.28 | 0.08 | 87 | 1007.8 |
| 20260507090020 | 9 | 329 | 1.6 | 4.8 | 0.00 | 0.25 | 0.05 | 86 | 1008.1 |
| 20260507085045 | 9 | 305 | 1.6 | 3.2 | 0.00 | 0.25 | 0.05 | 85 | 1008.1 |
| 20260507084024 | 9 | 323 | 3.2 | 4.8 | 0.00 | 0.25 | 0.05 | 85 | 1007.9 |
| 20260507083023 | 9 | 318 | 1.6 | 4.8 | 0.05 | 0.25 | 0.05 | 86 | 1007.8 |
| 20260507082023 | 9 | 0.0 | 1.6 | 0.05 | 0.25 | 0.05 | 86 | 1007.7 | |
| 20260507081025 | 9 | 319 | 1.6 | 4.8 | 0.05 | 0.25 | 0.05 | 86 | 1007.4 |
| 20260507080026 | 10 | 309 | 1.6 | 4.8 | 0.05 | 0.25 | 0.05 | 86 | 1007.6 |
| 20260507075020 | 10 | 328 | 3.2 | 8.0 | 0.05 | 0.25 | 0.05 | 85 | 1007.9 |
| 20260507074024 | 10 | 311 | 1.6 | 6.4 | 0.05 | 0.25 | 0.05 | 85 | 1007.6 |
| 20260507073026 | 11 | 322 | 3.2 | 6.4 | 0.00 | 0.20 | 0.00 | 81 | 1007.7 |
| 20260507072024 | 11 | 326 | 3.2 | 8.0 | 0.00 | 0.20 | 0.00 | 81 | 1007.3 |
| 20260507071020 | 11 | 318 | 3.2 | 4.8 | 0.00 | 0.20 | 0.00 | 81 | 1007.0 |
| 20260507070025 | 11 | 312 | 1.6 | 4.8 | 0.00 | 0.20 | 0.00 | 82 | 1006.9 |
| 20260507065023 | 11 | 334 | 1.6 | 4.8 | 0.00 | 0.20 | 0.00 | 83 | 1006.8 |
| 20260507064019 | 11 | 314 | 1.6 | 4.8 | 0.00 | 0.20 | 0.00 | 83 | 1006.8 |
| 20260507063024 | 12 | 338 | 0.0 | 3.2 | 0.00 | 0.20 | 0.00 | 83 | 1007.0 |
| 20260507062027 | 12 | 328 | 3.2 | 8.0 | 0.00 | 0.20 | 0.00 | 83 | 1007.0 |
| 20260507061024 | 12 | 326 | 3.2 | 4.8 | 0.00 | 0.20 | 0.00 | 83 | 1006.9 |
| 20260507060020 | 12 | 342 | 3.2 | 4.8 | 0.00 | 0.20 | 0.00 | 83 | 1006.8 |
| 20260507055043 | 12 | 330 | 3.2 | 4.8 | 0.00 | 0.20 | 0.00 | 83 | 1007.0 |
| 20260507054026 | 12 | 320 | 4.8 | 4.8 | 0.00 | 0.20 | 0.00 | 83 | 1007.1 |
| 20260507053023 | 12 | 325 | 6.4 | 12.9 | 0.00 | 0.20 | 0.00 | 83 | 1007.3 |
| 20260507052019 | 13 | 328 | 6.4 | 9.7 | 0.00 | 0.20 | 0.00 | 84 | 1007.3 |
| 20260507051027 | 13 | 321 | 4.8 | 8.0 | 0.00 | 0.20 | 0.00 | 86 | 1007.3 |
| 20260507050023 | 13 | 319 | 3.2 | 4.8 | 0.00 | 0.20 | 0.00 | 86 | 1007.1 |
| 20260507045020 | 13 | 326 | 1.6 | 4.8 | 0.00 | 0.20 | 0.00 | 87 | 1007.2 |
| 20260507044030 | 13 | 329 | 4.8 | 6.4 | 0.00 | 0.20 | 0.00 | 87 | 1007.2 |
| 20260507043023 | 13 | 328 | 0.0 | 3.2 | 0.00 | 0.20 | 0.00 | 87 | 1007.0 |
| 20260507042024 | 13 | 334 | 3.2 | 8.0 | 0.00 | 0.20 | 0.00 | 87 | 1007.1 |
| 20260507041024 | 14 | 321 | 3.2 | 9.7 | 0.00 | 0.20 | 0.00 | 86 | 1007.0 |
| 20260507040105 | 14 | 324 | 4.8 | 8.0 | 0.00 | 0.20 | 0.00 | 86 | 1007.0 |
| 20260507035028 | 15 | 327 | 6.4 | 12.9 | 0.00 | 0.20 | 0.20 | 88 | 1007.1 |
| 20260507034024 | 15 | 310 | 1.6 | 6.4 | 0.00 | 0.20 | 0.20 | 90 | 1006.9 |
| 20260507033020 | 15 | 322 | 1.6 | 4.8 | 0.00 | 0.20 | 0.20 | 91 | 1006.6 |
| 20260507032026 | 15 | 335 | 1.6 | 8.0 | 0.00 | 0.20 | 0.20 | 92 | 1006.5 |
| 20260507031019 | 15 | 306 | 1.6 | 4.8 | 0.00 | 0.20 | 0.20 | 92 | 1006.4 |
| 20260507030021 | 15 | 0.0 | 0.0 | 0.00 | 0.20 | 0.20 | 92 | 1006.3 | |
| 20260507025025 | 15 | 0.0 | 0.0 | 0.00 | 0.20 | 0.20 | 92 | 1006.0 | |
| 20260507024044 | 15 | 0.0 | 0.0 | 0.00 | 0.20 | 0.20 | 92 | 1006.0 | |
| 20260507023039 | 15 | 0.0 | 0.0 | 0.00 | 0.20 | 0.20 | 91 | 1006.1 | |
| 20260507022026 | 15 | 0.0 | 0.0 | 0.00 | 0.20 | 0.20 | 91 | 1006.2 | |
| 20260507021023 | 15 | 0.0 | 1.6 | 0.00 | 0.20 | 0.20 | 91 | 1006.1 | |
| 20260507020019 | 15 | 0.0 | 1.6 | 0.00 | 0.20 | 0.20 | 91 | 1006.1 | |
| 20260507015101 | 15 | 268 | 0.0 | 3.2 | 0.00 | 0.20 | 0.20 | 91 | 1006.1 |
| 20260507014026 | 15 | 0.0 | 0.0 | 0.00 | 0.20 | 0.20 | 91 | 1006.0 | |
| 20260507013023 | 15 | 139 | 3.2 | 6.4 | 0.00 | 0.20 | 0.20 | 92 | 1006.1 |
| 20260507012020 | 15 | 161 | 1.6 | 4.8 | 0.00 | 0.20 | 0.20 | 92 | 1006.1 |
| 20260507011023 | 15 | 105 | 1.6 | 4.8 | 0.00 | 0.20 | 0.20 | 92 | 1006.2 |
| 20260507010025 | 15 | 167 | 3.2 | 6.4 | 0.00 | 0.20 | 0.20 | 92 | 1006.2 |
| 20260507005044 | 15 | 161 | 1.6 | 6.4 | 0.00 | 0.20 | 0.20 | 92 | 1006.3 |
| 20260507004020 | 15 | 127 | 0.0 | 4.8 | 0.00 | 0.20 | 0.20 | 92 | 1006.2 |
| 20260507003025 | 15 | 143 | 0.0 | 4.8 | 0.00 | 0.20 | 0.20 | 92 | 1006.2 |
| 20260507002019 | 15 | 114 | 0.0 | 4.8 | 0.00 | 0.20 | 0.20 | 92 | 1006.1 |
| 20260507001023 | 15 | 140 | 0.0 | 4.8 | 0.00 | 0.20 | 0.20 | 92 | 1006.1 |
| 20260507000024 | 15 | 98 | 0.0 | 1.6 | 0.05 | 0.20 | 0.20 | 92 | 1005.9 |
| 20260506235023 | 15 | 148 | 1.6 | 6.4 | 0.05 | 0.20 | 0.20 | 92 | 1005.9 |
| 20260506234024 | 15 | 171 | 4.8 | 8.0 | 0.05 | 0.20 | 0.20 | 92 | 1005.8 |
| 20260506233024 | 15 | 167 | 1.6 | 4.8 | 0.05 | 0.20 | 0.20 | 92 | 1005.9 |
| 20260506232023 | 15 | 89 | 0.0 | 4.8 | 0.05 | 0.20 | 0.20 | 91 | 1005.9 |
| 20260506231026 | 15 | 160 | 0.0 | 3.2 | 0.05 | 0.20 | 0.20 | 91 | 1005.8 |
| 20260506230023 | 15 | 170 | 0.0 | 4.8 | 0.00 | 0.15 | 0.15 | 90 | 1005.9 |
| 20260506225020 | 15 | 182 | 3.2 | 6.4 | 0.00 | 0.15 | 0.15 | 90 | 1006.1 |
| 20260506224026 | 15 | 15 | 0.0 | 4.8 | 0.00 | 0.15 | 0.15 | 90 | 1006.1 |
| 20260506223040 | 15 | 0.0 | 0.0 | 0.00 | 0.15 | 0.15 | 90 | 1006.1 | |
| 20260506222027 | 15 | 160 | 0.0 | 3.2 | 0.03 | 0.15 | 0.15 | 89 | 1006.1 |
| 20260506221044 | 15 | 168 | 1.6 | 6.4 | 0.03 | 0.15 | 0.15 | 89 | 1006.3 |
| 20260506220024 | 16 | 198 | 1.6 | 6.4 | 0.03 | 0.15 | 0.15 | 89 | 1006.3 |
| 20260506215020 | 15 | 178 | 1.6 | 4.8 | 0.03 | 0.15 | 0.15 | 89 | 1006.3 |
| 20260506214025 | 15 | 201 | 1.6 | 4.8 | 0.03 | 0.15 | 0.15 | 89 | 1006.6 |
| 20260506213043 | 15 | 175 | 3.2 | 6.4 | 0.03 | 0.15 | 0.15 | 88 | 1006.7 |
| 20260506212140 | 15 | 164 | 1.6 | 4.8 | 0.00 | 0.13 | 0.13 | 88 | 1006.7 |
| 20260506211023 | 15 | 174 | 1.6 | 6.4 | 0.03 | 0.13 | 0.13 | 88 | 1006.8 |
| 20260506210026 | 15 | 141 | 1.6 | 4.8 | 0.03 | 0.13 | 0.13 | 88 | 1006.8 |
| 20260506205027 | 15 | 137 | 3.2 | 8.0 | 0.03 | 0.13 | 0.13 | 87 | 1006.9 |
| 20260506204020 | 15 | 158 | 4.8 | 11.3 | 0.03 | 0.13 | 0.13 | 87 | 1007.0 |
| 20260506203023 | 16 | 175 | 6.4 | 11.3 | 0.05 | 0.13 | 0.13 | 87 | 1007.0 |